logo
Search for airport 
image banner adimage banner adimage banner ad
image banner ad

11VT - Burke

Located in Killington, United States

ICAO - 11VT, IATA -

Data provided by Airmate  

General information

Coordinates: N43°39'14" W72°47'19"
Elevation is 1817 feet MSL.
 
View others Airports in Vermont

Operational data

Special qualification required
Current time UTC:
Current local time:
TAF: KRUT 172328Z 1800/1824 14007KT P6SM BKN100 FM181400 13009KT P6SM BKN035 OVC080
View NOTAMs / SUP AIP / TFR affecting this airport [VIEW]
Communications frequencies: [VIEW]

Runways:

Airport contact information

Address: Killington United States

Satellite view of 11VT